PWSweather.com
Personal Weather Stations
Station Observations

OlomoucCZ

Lat: 49.5936202181, Lon: 17.2276005149

Elevation: 752

Station Type: Davis Vantage Pro 2 Activ

http://infopocasi-olomouc.cz

High Low Average
Temperature 29.6°F-1.3°C 26.2°F-3.2°C 27.9°F-2.3°C
Dew Point 28.5°F-1.9°C 21.8°F-5.7°C 24.7°F-4.1°C
Winds 10.4 mph 16.7 kmh Calm Calm 5.0 mph WSW8.0 kmh WSW
Wind Gusts 15.0 mph24.1 kmh -- 8.0 mph12.9 kmh
Humidity 97% 78% 88%
Pressure 30.43 in1030.5 mb 30.16 in1021.3 mb -
Precipitation 0.03 in0.8 mm - -
Hour Temp Dew Point Humidity Winds Wind Gusts Pressure Precip Precip Rate Daily Precip Total
12:00 AM 27.5°F-2.5°C 23.6°F-4.7°C 85% 10.4 mph NW16.7 kmh NW 15.0 mph24.1 kmh 30.36 in1028.1 mb - 0.00 in0.0 mm 0.00 in0.0 mm
12:30 AM 26.9°F-2.8°C 23.8°F-4.6°C 88% 5.8 mph NW9.3 kmh NW 11.5 mph18.5 kmh 30.37 in1028.4 mb - 0.00 in0.0 mm 0.00 in0.0 mm
01:00 AM 27.3°F-2.6°C 23.6°F-4.7°C 86% 9.2 mph NW14.8 kmh NW 10.4 mph16.7 kmh 30.38 in1028.8 mb - 0.00 in0.0 mm 0.00 in0.0 mm
01:30 AM 27.3°F-2.6°C 23.4°F-4.8°C 85% 10.4 mph NW16.7 kmh NW 12.7 mph20.4 kmh 30.38 in1028.8 mb - 0.00 in0.0 mm 0.00 in0.0 mm
02:00 AM 27.1°F-2.7°C 23.5°F-4.7°C 86% 10.4 mph NW16.7 kmh NW 13.8 mph22.2 kmh 30.39 in1029.1 mb - 0.00 in0.0 mm 0.00 in0.0 mm
02:30 AM 27.1°F-2.7°C 23.2°F-4.9°C 85% 8.1 mph NW13.0 kmh NW 11.5 mph18.5 kmh 30.39 in1029.1 mb - 0.00 in0.0 mm 0.00 in0.0 mm
03:00 AM 26.8°F-2.9°C 22.6°F-5.2°C 84% 6.9 mph WNW11.1 kmh WNW 8.1 mph13.0 kmh 30.39 in1029.1 mb - 0.00 in0.0 mm 0.00 in0.0 mm
03:30 AM 26.6°F-3.0°C 22.1°F-5.5°C 83% 4.6 mph NW7.4 kmh NW 9.2 mph14.8 kmh 30.39 in1029.1 mb - 0.00 in0.0 mm 0.00 in0.0 mm
04:00 AM 26.6°F-3.0°C 22.5°F-5.3°C 84% 6.9 mph WNW11.1 kmh WNW 10.4 mph16.7 kmh 30.39 in1029.1 mb - 0.00 in0.0 mm 0.00 in0.0 mm
04:30 AM 26.6°F-3.0°C 22.4°F-5.3°C 84% 6.9 mph NW11.1 kmh NW 11.5 mph18.5 kmh 30.39 in1029.1 mb - 0.00 in0.0 mm 0.00 in0.0 mm
05:00 AM 26.2°F-3.2°C 22.3°F-5.4°C 85% 8.1 mph WNW13.0 kmh WNW 11.5 mph18.5 kmh 30.39 in1029.1 mb - 0.00 in0.0 mm 0.00 in0.0 mm
05:30 AM 26.6°F-3.0°C 22.7°F-5.2°C 85% 6.9 mph NW11.1 kmh NW 9.2 mph14.8 kmh 30.39 in1029.1 mb - 0.00 in0.0 mm 0.00 in0.0 mm
06:00 AM 26.6°F-3.0°C 22.7°F-5.2°C 85% 6.9 mph NW11.1 kmh NW 9.2 mph14.8 kmh 30.40 in1029.5 mb - 0.00 in0.0 mm 0.00 in0.0 mm
06:30 AM 26.6°F-3.0°C 22.4°F-5.3°C 84% 6.9 mph WNW11.1 kmh WNW 11.5 mph18.5 kmh 30.39 in1029.1 mb - 0.00 in0.0 mm 0.00 in0.0 mm
07:00 AM 26.6°F-3.0°C 22.4°F-5.3°C 84% 8.1 mph NW13.0 kmh NW 11.5 mph18.5 kmh 30.40 in1029.5 mb - 0.00 in0.0 mm 0.00 in0.0 mm
07:30 AM 26.6°F-3.0°C 22.1°F-5.5°C 83% 6.9 mph NW11.1 kmh NW 8.1 mph13.0 kmh 30.41 in1029.8 mb - 0.00 in0.0 mm 0.00 in0.0 mm
08:00 AM 26.4°F-3.1°C 21.9°F-5.6°C 83% 5.8 mph NW9.3 kmh NW 9.2 mph14.8 kmh 30.42 in1030.1 mb - 0.00 in0.0 mm 0.00 in0.0 mm
08:30 AM 26.3°F-3.2°C 21.8°F-5.7°C 83% 4.6 mph NW7.4 kmh NW 8.1 mph13.0 kmh 30.43 in1030.5 mb - 0.00 in0.0 mm 0.00 in0.0 mm
09:00 AM 26.3°F-3.2°C 21.9°F-5.6°C 83% 6.9 mph NW11.1 kmh NW 9.2 mph14.8 kmh 30.43 in1030.5 mb - 0.00 in0.0 mm 0.00 in0.0 mm
09:30 AM 27.5°F-2.5°C 22.4°F-5.3°C 81% 8.1 mph NW13.0 kmh NW 10.4 mph16.7 kmh 30.43 in1030.5 mb - 0.00 in0.0 mm 0.00 in0.0 mm
10:00 AM 28.7°F-1.8°C 22.7°F-5.2°C 78% 5.8 mph WNW9.3 kmh WNW 8.1 mph13.0 kmh 30.43 in1030.5 mb - 0.00 in0.0 mm 0.00 in0.0 mm
10:30 AM 29.2°F-1.6°C 23.5°F-4.7°C 79% 4.6 mph NW7.4 kmh NW 5.8 mph9.3 kmh 30.42 in1030.1 mb - 0.00 in0.0 mm 0.00 in0.0 mm
11:00 AM 28.7°F-1.8°C 23.0°F-5.0°C 79% 8.1 mph WNW13.0 kmh WNW 11.5 mph18.5 kmh 30.40 in1029.5 mb - 0.00 in0.0 mm 0.00 in0.0 mm
11:30 AM 29.0°F-1.7°C 23.3°F-4.8°C 79% 5.8 mph WNW9.3 kmh WNW 6.9 mph11.1 kmh 30.39 in1029.1 mb - 0.00 in0.0 mm 0.00 in0.0 mm
12:00 PM 29.1°F-1.6°C 23.7°F-4.6°C 80% 5.8 mph W9.3 kmh W 9.2 mph14.8 kmh 30.38 in1028.8 mb - 0.00 in0.0 mm 0.00 in0.0 mm
12:30 PM 29.4°F-1.4°C 24.3°F-4.3°C 81% 1.2 mph NW1.9 kmh NW 3.5 mph5.6 kmh 30.37 in1028.4 mb - 0.00 in0.0 mm 0.00 in0.0 mm
01:00 PM 29.6°F-1.3°C 24.8°F-4.0°C 82% 8.1 mph W13.0 kmh W 12.7 mph20.4 kmh 30.35 in1027.8 mb - 0.00 in0.0 mm 0.00 in0.0 mm
01:30 PM 29.4°F-1.4°C 25.4°F-3.7°C 85% 9.2 mph W14.8 kmh W 12.7 mph20.4 kmh 30.34 in1027.4 mb - 0.00 in0.0 mm 0.00 in0.0 mm
02:00 PM 29.3°F-1.5°C 25.4°F-3.7°C 85% 3.5 mph W5.6 kmh W 5.8 mph9.3 kmh 30.33 in1027.1 mb - 0.00 in0.0 mm 0.00 in0.0 mm
02:30 PM 28.7°F-1.8°C 25.9°F-3.4°C 89% 1.2 mph WSW1.9 kmh WSW 3.5 mph5.6 kmh 30.32 in1026.8 mb - 0.00 in0.0 mm 0.00 in0.0 mm
03:00 PM 28.5°F-1.9°C 26.2°F-3.2°C 91% 1.2 mph WSW1.9 kmh WSW 3.5 mph5.6 kmh 30.32 in1026.8 mb - 0.00 in0.0 mm 0.00 in0.0 mm
03:30 PM 28.3°F-2.1°C 26.5°F-3.1°C 93% 1.2 mph WSW1.9 kmh WSW 2.3 mph3.7 kmh 30.30 in1026.1 mb - 0.00 in0.0 mm 0.00 in0.0 mm
04:00 PM 28.5°F-1.9°C 26.9°F-2.8°C 94% 4.6 mph SE7.4 kmh SE 8.1 mph13.0 kmh 30.29 in1025.7 mb - 0.01 in0.3 mm 0.01 in0.3 mm
04:30 PM 28.1°F-2.2°C 26.6°F-3.0°C 94% 2.3 mph SE3.7 kmh SE 6.9 mph11.1 kmh 30.28 in1025.4 mb - 0.00 in0.0 mm 0.01 in0.3 mm
05:00 PM 28.0°F-2.2°C 26.8°F-2.9°C 95% 3.5 mph SE5.6 kmh SE 6.9 mph11.1 kmh 30.27 in1025.1 mb - 0.00 in0.0 mm 0.01 in0.3 mm
05:30 PM 28.0°F-2.2°C 26.8°F-2.9°C 95% 3.5 mph SE5.6 kmh SE 3.5 mph5.6 kmh 30.26 in1024.7 mb - 0.00 in0.0 mm 0.01 in0.3 mm
06:00 PM 28.1°F-2.2°C 26.9°F-2.8°C 95% 3.5 mph SE5.6 kmh SE 8.1 mph13.0 kmh 30.24 in1024.0 mb - 0.00 in0.0 mm 0.02 in0.5 mm
06:30 PM 28.4°F-2.0°C 27.4°F-2.6°C 96% 4.6 mph SSE7.4 kmh SSE 8.1 mph13.0 kmh 30.23 in1023.7 mb - 0.01 in0.3 mm 0.02 in0.5 mm
07:00 PM 28.4°F-2.0°C 27.4°F-2.6°C 96% 3.5 mph SE5.6 kmh SE 4.6 mph7.4 kmh 30.22 in1023.4 mb - 0.01 in0.3 mm 0.02 in0.5 mm
07:30 PM 28.5°F-1.9°C 27.3°F-2.6°C 95% 3.5 mph SE5.6 kmh SE 4.6 mph7.4 kmh 30.21 in1023.0 mb - 0.01 in0.3 mm 0.03 in0.8 mm
08:00 PM 28.5°F-1.9°C 27.5°F-2.5°C 96% 2.3 mph SE3.7 kmh SE 4.6 mph7.4 kmh 30.21 in1023.0 mb - 0.00 in0.0 mm 0.03 in0.8 mm
08:30 PM 28.5°F-1.9°C 27.3°F-2.6°C 95% 3.5 mph SE5.6 kmh SE 4.6 mph7.4 kmh 30.20 in1022.7 mb - 0.00 in0.0 mm 0.03 in0.8 mm
09:00 PM 28.7°F-1.8°C 27.7°F-2.4°C 96% Calm Calm -- 30.19 in1022.4 mb - 0.00 in0.0 mm 0.03 in0.8 mm
09:30 PM 28.7°F-1.8°C 27.7°F-2.4°C 96% 2.3 mph SE3.7 kmh SE 2.3 mph3.7 kmh 30.19 in1022.4 mb - 0.00 in0.0 mm 0.03 in0.8 mm
10:00 PM 28.8°F-1.8°C 27.8°F-2.3°C 96% 1.2 mph SE1.9 kmh SE 3.5 mph5.6 kmh 30.19 in1022.4 mb - 0.00 in0.0 mm 0.03 in0.8 mm
10:30 PM 28.9°F-1.7°C 27.9°F-2.3°C 96% 2.3 mph SE3.7 kmh SE 3.5 mph5.6 kmh 30.18 in1022.0 mb - 0.00 in0.0 mm 0.03 in0.8 mm
11:00 PM 29.0°F-1.7°C 28.3°F-2.1°C 97% 2.3 mph SE3.7 kmh SE 3.5 mph5.6 kmh 30.17 in1021.7 mb - 0.00 in0.0 mm 0.03 in0.8 mm
11:30 PM 29.2°F-1.6°C 28.5°F-1.9°C 97% Calm Calm 1.2 mph1.9 kmh 30.16 in1021.3 mb - 0.00 in0.0 mm 0.03 in0.8 mm